createdAt,value
2022-08-18T00:00:45.913Z,4.80
2022-08-18T00:01:56.191Z,5.03
2022-08-18T00:03:11.741Z,4.95
2022-08-18T00:04:35.690Z,4.30
2022-08-18T00:05:41.162Z,4.30
2022-08-18T00:06:44.681Z,4.55
2022-08-18T00:07:47.617Z,4.30
2022-08-18T00:08:49.627Z,4.70
2022-08-18T00:09:58.526Z,3.55
2022-08-18T00:11:02.118Z,4.10
2022-08-18T00:12:09.012Z,4.03
2022-08-18T00:13:10.991Z,4.38
2022-08-18T00:14:22.272Z,4.30
2022-08-18T00:15:25.439Z,4.38
2022-08-18T00:16:28.492Z,4.63
2022-08-18T00:17:30.937Z,4.45
2022-08-18T00:18:33.928Z,4.32
2022-08-18T00:19:47.627Z,4.13
2022-08-18T00:20:52.504Z,4.32
2022-08-18T00:21:54.567Z,3.92
2022-08-18T00:22:57.791Z,4.82
2022-08-18T00:23:59.798Z,3.40
2022-08-18T00:25:03.358Z,4.00
2022-08-18T00:26:05.590Z,4.13
2022-08-18T00:27:10.508Z,4.65
2022-08-18T00:28:14.007Z,4.40
2022-08-18T00:29:17.048Z,4.40
2022-08-18T00:30:21.202Z,4.13
2022-08-18T00:31:24.636Z,5.20
2022-08-18T00:32:30.726Z,4.75
2022-08-18T00:33:33.758Z,4.00
2022-08-18T00:34:35.759Z,4.30
2022-08-18T00:35:39.692Z,4.65
2022-08-18T00:36:43.799Z,3.70
2022-08-18T00:37:47.597Z,4.20
2022-08-18T00:38:49.647Z,4.93
2022-08-18T00:39:53.629Z,4.20
2022-08-18T00:40:56.721Z,3.42
2022-08-18T00:41:59.749Z,4.35
2022-08-18T00:43:04.701Z,3.88
2022-08-18T00:44:08.647Z,4.15
2022-08-18T00:45:15.230Z,4.22
2022-08-18T00:46:20.769Z,4.03
2022-08-18T00:47:41.503Z,4.10
2022-08-18T00:48:48.856Z,3.67
2022-08-18T00:49:53.490Z,4.28
2022-08-18T00:50:59.246Z,3.95
2022-08-18T00:52:04.453Z,4.10
2022-08-18T00:53:13.526Z,4.32
2022-08-18T00:54:21.150Z,4.15
2022-08-18T00:55:26.391Z,3.85
2022-08-18T00:56:34.486Z,4.60
2022-08-18T00:57:37.634Z,4.10
2022-08-18T00:58:44.447Z,4.10
2022-08-18T00:59:52.032Z,3.97
2022-08-18T01:00:54.895Z,4.15
2022-08-18T01:02:02.517Z,4.82
2022-08-18T01:03:10.525Z,4.85
2022-08-18T01:04:17.069Z,4.32
2022-08-18T01:05:24.414Z,3.75
2022-08-18T01:06:33.430Z,4.18
2022-08-18T01:07:40.394Z,4.53
2022-08-18T01:08:43.841Z,4.60
2022-08-18T01:09:46.710Z,4.10
2022-08-18T01:10:50.220Z,4.20
2022-08-18T01:11:52.526Z,3.92
2022-08-18T01:12:57.656Z,3.80
2022-08-18T01:13:59.719Z,4.72
2022-08-18T01:15:03.182Z,4.18
2022-08-18T01:16:20.581Z,4.20
2022-08-18T01:17:41.907Z,3.90
2022-08-18T01:19:02.346Z,5.07
2022-08-18T01:20:23.736Z,4.15
2022-08-18T01:21:48.711Z,3.75
2022-08-18T01:23:01.489Z,3.90
2022-08-18T01:24:05.630Z,3.70
2022-08-18T01:25:27.397Z,3.92
2022-08-18T01:26:31.737Z,4.10
2022-08-18T01:27:33.999Z,3.95
2022-08-18T01:28:40.678Z,4.55
2022-08-18T01:29:43.617Z,3.95
2022-08-18T01:30:49.587Z,3.88
2022-08-18T01:31:56.269Z,3.92
2022-08-18T01:32:59.929Z,4.13
2022-08-18T01:34:02.303Z,4.75
2022-08-18T01:35:09.212Z,5.10
2022-08-18T01:36:14.505Z,4.70
2022-08-18T01:37:19.777Z,4.05
2022-08-18T01:38:23.312Z,4.20
2022-08-18T01:41:01.001Z,4.13
2022-08-18T01:41:21.106Z,4.43
2022-08-18T01:42:17.136Z,4.15
2022-08-18T01:43:20.363Z,4.45
2022-08-18T01:44:22.792Z,4.32
2022-08-18T01:45:26.322Z,4.10
2022-08-18T01:46:29.781Z,4.80
2022-08-18T01:47:47.739Z,4.40
2022-08-18T01:48:51.251Z,5.18
2022-08-18T01:49:54.268Z,4.60
2022-08-18T01:50:59.485Z,4.97
2022-08-18T01:52:04.467Z,5.25
2022-08-18T01:53:07.443Z,4.78
2022-08-18T01:54:14.685Z,4.80
2022-08-18T01:55:18.186Z,4.75
2022-08-18T01:56:22.475Z,4.80
2022-08-18T01:57:25.999Z,4.60
2022-08-18T01:58:31.738Z,4.38
2022-08-18T01:59:35.287Z,4.75
2022-08-18T02:00:38.410Z,4.75
2022-08-18T02:01:48.084Z,5.05
2022-08-18T02:02:57.241Z,4.90
2022-08-18T02:04:31.051Z,4.50
2022-08-18T02:05:34.350Z,5.30
2022-08-18T02:06:36.782Z,4.40
2022-08-18T02:07:42.639Z,4.85
2022-08-18T02:08:53.830Z,4.65
2022-08-18T02:09:59.297Z,5.38
2022-08-18T02:11:01.597Z,4.55
2022-08-18T02:12:05.775Z,5.15
2022-08-18T02:13:07.977Z,4.15
2022-08-18T02:14:10.927Z,5.22
2022-08-18T02:15:13.947Z,4.65
2022-08-18T02:16:16.834Z,5.28
2022-08-18T02:17:20.074Z,3.90
2022-08-18T02:18:47.960Z,4.72
2022-08-18T02:19:48.882Z,5.10
2022-08-18T02:20:50.942Z,5.30
2022-08-18T02:21:54.279Z,4.82
2022-08-18T02:22:58.563Z,5.05
2022-08-18T02:24:01.578Z,4.60
2022-08-18T02:25:06.863Z,4.85
2022-08-18T02:26:12.338Z,5.55
2022-08-18T02:27:16.754Z,5.30
2022-08-18T02:28:19.818Z,4.85
2022-08-18T02:29:21.799Z,4.07
2022-08-18T02:30:24.836Z,3.83
2022-08-18T02:31:26.985Z,4.40
2022-08-18T02:32:30.123Z,4.88
2022-08-18T02:33:32.159Z,4.70
2022-08-18T02:34:35.310Z,4.65
2022-08-18T02:35:37.886Z,5.68
2022-08-18T02:36:40.840Z,4.38
2022-08-18T02:37:43.294Z,5.25
2022-08-18T02:38:59.280Z,4.50
2022-08-18T02:40:02.166Z,5.10
2022-08-18T02:41:09.321Z,4.65
2022-08-18T02:42:11.705Z,4.10
2022-08-18T02:43:14.710Z,4.43
2022-08-18T02:44:16.718Z,5.40
2022-08-18T02:45:20.150Z,5.20
2022-08-18T02:46:22.110Z,4.45
2022-08-18T02:47:30.228Z,5.20
2022-08-18T02:48:35.097Z,4.72
2022-08-18T02:49:38.098Z,5.28
2022-08-18T02:50:45.237Z,4.55
2022-08-18T02:51:48.231Z,4.55
2022-08-18T02:52:50.381Z,5.10
2022-08-18T02:53:53.933Z,5.10
2022-08-18T02:54:56.208Z,4.50
2022-08-18T02:56:18.210Z,5.00
2022-08-18T02:57:43.696Z,5.10
2022-08-18T02:58:45.745Z,4.35
2022-08-18T02:59:48.741Z,4.15
2022-08-18T03:00:50.810Z,5.00
2022-08-18T03:01:56.474Z,4.93
2022-08-18T03:02:58.563Z,4.40
2022-08-18T03:04:02.558Z,4.70
2022-08-18T03:05:05.239Z,5.32
2022-08-18T03:06:08.701Z,4.90
2022-08-18T03:07:10.742Z,5.03
2022-08-18T03:08:13.736Z,5.03
2022-08-18T03:09:17.209Z,5.07
2022-08-18T03:10:32.386Z,4.82
2022-08-18T03:11:38.137Z,5.40
2022-08-18T03:12:43.281Z,4.75
2022-08-18T03:13:46.382Z,4.80
2022-08-18T03:14:50.413Z,4.80
2022-08-18T03:15:56.717Z,3.88
2022-08-18T03:17:00.875Z,4.50
2022-08-18T03:18:02.910Z,4.60
2022-08-18T03:19:05.926Z,4.32
2022-08-18T03:20:08.510Z,4.90
2022-08-18T03:21:14.293Z,5.80
2022-08-18T03:22:28.094Z,4.88
2022-08-18T03:23:32.757Z,5.82
2022-08-18T03:24:36.381Z,5.53
2022-08-18T03:25:45.087Z,5.20
2022-08-18T03:26:49.442Z,4.40
2022-08-18T03:27:51.572Z,4.95
2022-08-18T03:28:56.369Z,5.03
2022-08-18T03:29:58.721Z,5.32
2022-08-18T03:31:01.902Z,5.20
2022-08-18T03:32:07.304Z,5.18
2022-08-18T03:33:11.219Z,5.03
2022-08-18T03:34:13.451Z,5.40
2022-08-18T03:35:16.662Z,5.80
2022-08-18T03:36:24.846Z,5.38
2022-08-18T03:37:27.020Z,5.80
2022-08-18T03:38:29.984Z,4.85
2022-08-18T03:39:31.983Z,4.57
2022-08-18T03:40:35.857Z,4.80
2022-08-18T03:41:59.171Z,4.90
2022-08-18T03:43:49.583Z,5.57
2022-08-18T03:44:31.035Z,5.82
2022-08-18T03:45:35.006Z,4.80
2022-08-18T03:46:37.468Z,5.40
2022-08-18T03:47:41.697Z,4.40
2022-08-18T03:48:45.793Z,5.15
2022-08-18T03:49:48.920Z,4.65
2022-08-18T03:50:50.921Z,4.72
2022-08-18T03:51:54.349Z,5.90
2022-08-18T03:52:59.449Z,4.40
2022-08-18T03:54:04.607Z,5.18
2022-08-18T03:55:07.210Z,5.65
2022-08-18T03:56:16.034Z,4.68
2022-08-18T03:57:20.046Z,5.15
2022-08-18T03:58:24.768Z,5.63
2022-08-18T03:59:27.417Z,5.10
2022-08-18T04:00:31.764Z,5.55
2022-08-18T04:01:39.213Z,5.40
2022-08-18T04:02:42.534Z,4.57
2022-08-18T04:03:45.634Z,4.93
2022-08-18T04:04:49.565Z,4.93
2022-08-18T04:05:53.381Z,5.50
2022-08-18T04:06:59.130Z,5.22
2022-08-18T04:08:02.592Z,5.10
2022-08-18T04:09:07.658Z,5.15
2022-08-18T04:10:13.983Z,5.50
2022-08-18T04:11:22.555Z,4.95
2022-08-18T04:12:24.564Z,5.18
2022-08-18T04:13:28.931Z,4.88
2022-08-18T04:14:31.815Z,4.43
2022-08-18T04:15:34.807Z,5.07
2022-08-18T04:16:38.632Z,4.47
2022-08-18T04:17:56.230Z,5.47
2022-08-18T04:19:04.244Z,5.18
2022-08-18T04:20:07.994Z,4.63
2022-08-18T04:21:13.506Z,5.55
2022-08-18T04:22:18.579Z,4.68
2022-08-18T04:23:21.369Z,5.05
2022-08-18T04:24:25.866Z,5.57
2022-08-18T04:25:32.589Z,5.32
2022-08-18T04:26:37.857Z,5.15
2022-08-18T04:27:42.674Z,5.15
2022-08-18T04:28:47.135Z,5.57
2022-08-18T04:29:50.679Z,5.00
2022-08-18T04:30:53.559Z,4.90
2022-08-18T04:31:56.535Z,5.03
2022-08-18T04:32:58.548Z,5.22
2022-08-18T04:34:03.398Z,4.85
2022-08-18T04:35:09.012Z,5.47
2022-08-18T04:36:18.682Z,5.65
2022-08-18T04:37:22.838Z,5.05
2022-08-18T04:38:25.917Z,5.10
2022-08-18T04:39:28.425Z,4.82
2022-08-18T04:40:33.850Z,4.68
2022-08-18T04:41:36.681Z,4.80
2022-08-18T04:42:43.101Z,4.78
2022-08-18T04:43:48.062Z,4.57
2022-08-18T04:44:51.404Z,5.22
2022-08-18T04:45:53.453Z,5.82
2022-08-18T04:46:56.751Z,5.07
2022-08-18T04:47:58.744Z,5.18
2022-08-18T04:49:01.773Z,5.05
2022-08-18T04:50:04.459Z,5.00
2022-08-18T04:51:08.790Z,5.63
2022-08-18T04:52:40.513Z,5.05
2022-08-18T04:53:46.971Z,5.60
2022-08-18T04:54:50.093Z,5.00
2022-08-18T04:55:54.925Z,4.88
2022-08-18T04:56:58.017Z,5.50
2022-08-18T04:58:00.689Z,5.00
2022-08-18T04:59:08.511Z,5.22
2022-08-18T05:00:13.343Z,4.65
2022-08-18T05:01:17.671Z,4.97
2022-08-18T05:02:21.964Z,5.88
2022-08-18T05:03:26.962Z,5.15
2022-08-18T05:04:30.281Z,5.15
2022-08-18T05:05:32.273Z,5.68
2022-08-18T05:06:36.097Z,4.90
2022-08-18T05:07:44.910Z,5.65
2022-08-18T05:08:48.242Z,5.45
2022-08-18T05:09:51.967Z,5.78
2022-08-18T05:10:58.072Z,5.53
2022-08-18T05:12:03.812Z,5.70
2022-08-18T05:13:06.824Z,5.60
2022-08-18T05:14:10.832Z,5.85
2022-08-18T05:15:13.798Z,4.80
2022-08-18T05:16:27.267Z,5.60
2022-08-18T05:17:31.337Z,5.70
2022-08-18T05:18:36.215Z,5.60
2022-08-18T05:19:44.081Z,5.68
2022-08-18T05:20:46.433Z,5.32
2022-08-18T05:21:50.675Z,5.90
2022-08-18T05:22:53.429Z,5.72
2022-08-18T05:23:56.589Z,5.35
2022-08-18T05:24:59.765Z,5.82
2022-08-18T05:26:04.598Z,5.95
2022-08-18T05:27:07.445Z,5.20
2022-08-18T05:28:10.938Z,4.82
2022-08-18T05:29:18.429Z,5.35
2022-08-18T05:30:22.723Z,5.28
2022-08-18T05:31:27.377Z,5.95
2022-08-18T05:32:47.017Z,5.55
2022-08-18T05:33:52.908Z,5.72
2022-08-18T05:34:54.995Z,6.10
2022-08-18T05:36:04.514Z,6.10
2022-08-18T05:37:20.858Z,5.70
2022-08-18T05:38:35.077Z,5.55
2022-08-18T05:39:43.738Z,4.85
2022-08-18T05:40:47.703Z,6.22
2022-08-18T05:41:52.846Z,5.32
2022-08-18T05:42:58.110Z,5.60
2022-08-18T05:44:00.895Z,5.40
2022-08-18T05:45:10.753Z,5.13
2022-08-18T05:46:13.967Z,5.40
2022-08-18T05:47:22.615Z,5.20
2022-08-18T05:48:26.251Z,6.07
2022-08-18T05:49:28.616Z,5.53
2022-08-18T05:50:36.359Z,6.03
2022-08-18T05:51:42.094Z,5.40
2022-08-18T05:52:52.892Z,5.20
2022-08-18T05:54:13.771Z,5.13
2022-08-18T05:55:40.129Z,5.47
2022-08-18T05:56:48.507Z,6.10
2022-08-18T05:57:56.058Z,6.63
2022-08-18T05:59:01.276Z,6.25
2022-08-18T06:00:09.557Z,6.10
2022-08-18T06:01:16.010Z,5.10
2022-08-18T06:02:28.655Z,5.22
2022-08-18T06:03:46.460Z,6.05
2022-08-18T06:04:55.961Z,5.47
2022-08-18T06:06:01.408Z,5.25
2022-08-18T06:07:09.561Z,5.68
2022-08-18T06:08:14.242Z,5.97
2022-08-18T06:09:22.529Z,5.50
2022-08-18T06:10:26.257Z,5.80
2022-08-18T06:11:28.329Z,5.10
2022-08-18T06:12:37.774Z,5.40
2022-08-18T06:13:43.069Z,6.10
2022-08-18T06:14:46.505Z,6.05
2022-08-18T06:15:54.987Z,5.70
2022-08-18T06:17:09.350Z,5.57
2022-08-18T06:18:24.057Z,5.18
2022-08-18T06:19:36.601Z,6.00
2022-08-18T06:20:53.736Z,5.03
2022-08-18T06:22:07.679Z,5.40
2022-08-18T06:23:24.187Z,5.53
2022-08-18T06:24:35.511Z,5.25
2022-08-18T06:25:49.321Z,5.03
2022-08-18T06:27:01.170Z,5.78
2022-08-18T06:28:08.856Z,5.07
2022-08-18T06:29:27.254Z,6.03
2022-08-18T06:30:47.986Z,5.28
2022-08-18T06:32:01.103Z,5.28
2022-08-18T06:33:14.085Z,5.63
2022-08-18T06:34:29.005Z,5.32
2022-08-18T06:35:38.582Z,5.57
2022-08-18T06:36:50.757Z,5.30
2022-08-18T06:38:21.266Z,5.40
2022-08-18T06:39:30.603Z,5.90
2022-08-18T06:40:32.686Z,5.78
2022-08-18T06:41:43.231Z,6.05
2022-08-18T06:42:46.118Z,5.63
2022-08-18T06:44:00.187Z,5.47
2022-08-18T06:45:08.119Z,5.75
2022-08-18T06:46:17.721Z,5.88
2022-08-18T06:47:32.163Z,4.80
2022-08-18T06:48:44.463Z,6.38
2022-08-18T06:49:54.928Z,5.97
2022-08-18T06:51:00.348Z,5.38
2022-08-18T06:52:21.746Z,6.88
2022-08-18T06:53:50.901Z,7.32
2022-08-18T06:54:55.698Z,7.32
2022-08-18T06:55:57.678Z,6.70
2022-08-18T06:57:01.529Z,7.43
2022-08-18T06:58:07.170Z,6.80
2022-08-18T06:59:25.441Z,6.20
2022-08-18T07:00:32.638Z,6.38
2022-08-18T07:01:36.082Z,6.65
2022-08-18T07:02:51.938Z,6.78
2022-08-18T07:03:56.567Z,7.10
2022-08-18T07:05:02.394Z,6.97
2022-08-18T07:06:07.433Z,6.85
2022-08-18T07:07:20.550Z,5.93
2022-08-18T07:08:30.804Z,5.63
2022-08-18T07:09:35.822Z,5.85
2022-08-18T07:10:39.923Z,6.35
2022-08-18T07:11:58.494Z,5.85
2022-08-18T07:13:22.886Z,5.35
2022-08-18T07:14:25.698Z,4.85
2022-08-18T07:15:28.873Z,5.05
2022-08-18T07:16:56.689Z,6.78
2022-08-18T07:18:06.302Z,5.93
2022-08-18T07:19:09.135Z,6.68
2022-08-18T07:20:21.613Z,5.57
2022-08-18T07:21:29.030Z,5.05
2022-08-18T07:22:39.498Z,5.97
2022-08-18T07:23:44.167Z,5.90
2022-08-18T07:24:49.016Z,7.70
2022-08-18T07:26:03.229Z,5.85
2022-08-18T07:27:09.938Z,6.05
2022-08-18T07:28:29.477Z,5.43
2022-08-18T07:29:34.652Z,5.50
2022-08-18T07:30:47.037Z,5.55
2022-08-18T07:33:14.866Z,5.22
2022-08-18T07:34:21.101Z,6.30
2022-08-18T07:35:29.032Z,5.28
2022-08-18T07:36:35.582Z,5.50
2022-08-18T07:37:46.583Z,6.43
2022-08-18T07:38:54.361Z,6.45
2022-08-18T07:40:02.348Z,6.20
2022-08-18T07:41:14.279Z,6.03
2022-08-18T07:42:33.075Z,6.53
2022-08-18T07:43:59.317Z,6.43
2022-08-18T07:45:06.547Z,5.82
2022-08-18T07:46:16.286Z,6.32
2022-08-18T07:47:23.596Z,7.32
2022-08-18T07:48:38.521Z,5.93
2022-08-18T07:50:13.430Z,6.05
2022-08-18T07:51:17.279Z,5.70
2022-08-18T07:52:43.841Z,5.60
2022-08-18T07:54:00.331Z,6.13
2022-08-18T07:55:11.713Z,6.10
2022-08-18T07:56:21.017Z,5.78
2022-08-18T07:57:35.359Z,5.95
2022-08-18T07:58:48.900Z,5.25
2022-08-18T07:59:59.015Z,5.50
2022-08-18T08:01:08.118Z,5.15
2022-08-18T08:02:24.349Z,5.45
2022-08-18T08:03:39.288Z,5.50
2022-08-18T08:04:49.894Z,5.45
2022-08-18T08:06:00.816Z,5.28
2022-08-18T08:07:25.853Z,5.47
2022-08-18T08:08:33.942Z,5.05
2022-08-18T08:09:51.644Z,6.28
2022-08-18T08:11:09.000Z,5.38
2022-08-18T08:12:22.553Z,5.50
2022-08-18T08:13:56.489Z,5.55
2022-08-18T08:15:11.870Z,5.03
2022-08-18T08:16:20.515Z,5.15
2022-08-18T08:17:30.464Z,5.20
2022-08-18T08:18:44.737Z,5.45
2022-08-18T08:20:21.087Z,5.60
2022-08-18T08:21:28.362Z,5.53
2022-08-18T08:22:37.455Z,5.72
2022-08-18T08:23:49.083Z,5.30
2022-08-18T08:25:01.470Z,5.63
2022-08-18T08:26:24.349Z,5.20
2022-08-18T08:27:38.169Z,4.60
2022-08-18T08:28:55.105Z,4.88
2022-08-18T08:30:06.240Z,5.18
2022-08-18T08:31:36.358Z,5.47
2022-08-18T08:32:37.220Z,5.18
2022-08-18T08:33:45.662Z,5.00
2022-08-18T08:34:52.136Z,5.00
2022-08-18T08:36:01.107Z,4.78
2022-08-18T08:37:08.319Z,4.47
2022-08-18T08:38:38.722Z,4.93
2022-08-18T08:39:44.793Z,5.55
2022-08-18T08:40:53.058Z,4.70
2022-08-18T08:42:31.743Z,4.97
2022-08-18T08:43:28.658Z,4.60
2022-08-18T08:44:44.977Z,4.60
2022-08-18T08:46:08.310Z,5.18
2022-08-18T08:47:17.005Z,4.65
2022-08-18T08:48:31.082Z,5.07
2022-08-18T08:49:40.665Z,5.15
2022-08-18T08:50:49.329Z,4.97
2022-08-18T08:51:57.897Z,5.35
2022-08-18T08:53:03.941Z,5.60
2022-08-18T08:54:13.110Z,4.72
2022-08-18T08:55:18.761Z,4.90
2022-08-18T08:56:29.560Z,5.60
2022-08-18T08:57:38.169Z,4.85
2022-08-18T08:58:46.691Z,4.50
2022-08-18T08:59:51.714Z,5.97
2022-08-18T09:00:55.176Z,5.10
2022-08-18T09:02:44.759Z,5.28
2022-08-18T09:03:51.082Z,4.50
2022-08-18T09:05:08.592Z,4.30
2022-08-18T09:06:25.771Z,5.20
2022-08-18T09:07:41.021Z,5.00
2022-08-18T09:09:07.895Z,4.80
2022-08-18T09:10:29.683Z,4.72
2022-08-18T09:12:01.334Z,5.43
2022-08-18T09:13:20.158Z,5.13
2022-08-18T09:15:07.469Z,4.97
2022-08-18T09:16:38.713Z,5.05
2022-08-18T09:18:03.377Z,4.72
2022-08-18T09:19:17.651Z,4.60
2022-08-18T09:20:35.530Z,4.90
2022-08-18T09:21:44.735Z,5.30
2022-08-18T09:22:52.979Z,4.40
2022-08-18T09:24:07.842Z,4.45
2022-08-18T09:25:29.331Z,5.07
2022-08-18T09:26:42.386Z,4.30
2022-08-18T09:28:09.828Z,4.25
2022-08-18T09:29:23.383Z,4.40
2022-08-18T09:30:47.471Z,4.60
2022-08-18T09:32:09.242Z,4.30
2022-08-18T09:33:49.774Z,4.18
2022-08-18T09:35:06.634Z,4.50
2022-08-18T09:36:30.031Z,4.20
2022-08-18T09:37:43.019Z,4.38
2022-08-18T09:39:26.582Z,4.00
2022-08-18T09:42:14.282Z,5.03
2022-08-18T09:43:32.216Z,4.75
2022-08-18T09:45:11.137Z,4.05
2022-08-18T09:46:52.561Z,3.90
2022-08-18T09:48:25.548Z,4.25
2022-08-18T09:50:37.346Z,4.57
2022-08-18T09:51:34.430Z,4.50
2022-08-18T09:52:56.605Z,3.58
2022-08-18T09:54:21.303Z,3.88
2022-08-18T09:55:56.732Z,4.43
2022-08-18T09:58:55.653Z,4.55
2022-08-18T10:00:19.873Z,4.10
2022-08-18T10:01:52.603Z,3.90
2022-08-18T10:03:25.724Z,4.10
2022-08-18T10:04:32.543Z,4.30
2022-08-18T10:05:35.295Z,3.80
2022-08-18T10:06:42.854Z,4.60
2022-08-18T10:07:47.646Z,5.22
2022-08-18T10:09:27.219Z,4.18
2022-08-18T10:11:01.142Z,4.68
2022-08-18T10:12:27.545Z,4.35
2022-08-18T10:13:38.647Z,4.45
2022-08-18T10:15:33.257Z,4.28
2022-08-18T10:17:16.028Z,4.55
2022-08-18T10:18:50.572Z,4.75
2022-08-18T10:20:01.795Z,4.47
2022-08-18T10:21:11.759Z,4.80
2022-08-18T10:22:38.538Z,4.20
2022-08-18T10:24:14.523Z,4.47
2022-08-18T10:25:34.986Z,5.10
2022-08-18T10:27:02.494Z,4.90
2022-08-18T10:28:08.454Z,4.18
2022-08-18T10:29:31.999Z,3.70
2022-08-18T10:31:06.172Z,4.38
2022-08-18T10:32:36.322Z,4.45
2022-08-18T10:34:23.057Z,4.80
2022-08-18T10:35:57.812Z,5.07
2022-08-18T10:37:02.556Z,4.35
2022-08-18T10:38:17.291Z,4.47
2022-08-18T10:39:23.170Z,4.10
2022-08-18T10:40:26.476Z,4.15
2022-08-18T10:41:32.918Z,4.93
2022-08-18T10:42:40.108Z,4.35
2022-08-18T10:43:55.591Z,4.20
2022-08-18T10:45:08.831Z,4.47
2022-08-18T10:46:25.078Z,4.10
2022-08-18T10:47:33.667Z,4.35
2022-08-18T10:48:40.257Z,4.10
2022-08-18T10:49:50.542Z,4.63
2022-08-18T10:50:58.560Z,4.10
2022-08-18T10:52:22.503Z,4.60
2022-08-18T10:53:39.174Z,4.90
2022-08-18T10:55:06.865Z,4.88
2022-08-18T10:56:36.747Z,4.90
2022-08-18T10:58:00.513Z,4.93
2022-08-18T10:59:18.789Z,4.70
2022-08-18T11:00:22.644Z,4.82
2022-08-18T11:01:41.640Z,4.80
2022-08-18T11:03:13.899Z,4.40
2022-08-18T11:04:34.607Z,4.43
2022-08-18T11:05:39.153Z,4.57
2022-08-18T11:06:51.379Z,4.50
2022-08-18T11:08:01.415Z,4.78
2022-08-18T11:09:05.430Z,4.60
2022-08-18T11:10:57.608Z,4.80
2022-08-18T11:11:52.798Z,4.68
2022-08-18T11:13:09.905Z,4.20
2022-08-18T11:14:30.090Z,4.55
2022-08-18T11:15:47.956Z,4.15
2022-08-18T11:17:01.587Z,4.90
2022-08-18T11:18:18.179Z,4.15
2022-08-18T11:19:22.682Z,4.43
2022-08-18T11:20:31.358Z,4.80
2022-08-18T11:21:42.753Z,4.97
2022-08-18T11:22:55.399Z,3.95
2022-08-18T11:25:35.804Z,4.50
2022-08-18T11:26:40.762Z,4.38
2022-08-18T11:27:48.502Z,4.10
2022-08-18T11:28:50.526Z,4.75
2022-08-18T11:29:55.248Z,4.40
2022-08-18T11:30:58.162Z,4.70
2022-08-18T11:32:06.804Z,5.50
2022-08-18T11:33:22.668Z,4.60
2022-08-18T11:34:31.043Z,5.20
2022-08-18T11:35:47.010Z,4.72
2022-08-18T11:36:57.713Z,4.20
2022-08-18T11:38:03.578Z,4.90
2022-08-18T11:39:09.567Z,4.22
2022-08-18T11:41:55.101Z,4.50
2022-08-18T11:43:01.462Z,4.53
2022-08-18T11:44:07.308Z,4.45
2022-08-18T11:45:16.976Z,5.43
2022-08-18T11:46:31.933Z,4.45
2022-08-18T11:47:38.050Z,3.67
2022-08-18T11:48:52.277Z,4.30
2022-08-18T11:50:04.439Z,4.40
2022-08-18T11:51:17.690Z,4.68
2022-08-18T11:52:35.697Z,4.30
2022-08-18T11:55:24.536Z,3.65
2022-08-18T11:56:32.342Z,4.18
2022-08-18T11:57:49.367Z,5.30
2022-08-18T11:58:54.935Z,6.07
2022-08-18T12:00:00.479Z,5.28
2022-08-18T12:01:04.115Z,5.07
2022-08-18T12:02:08.496Z,5.53
2022-08-18T12:03:20.200Z,5.88
2022-08-18T12:04:29.057Z,4.95
2022-08-18T12:05:53.887Z,4.50
2022-08-18T12:07:04.544Z,4.50
2022-08-18T12:08:33.572Z,5.05
2022-08-18T12:10:17.202Z,4.18
2022-08-18T12:12:48.251Z,4.35
2022-08-18T12:14:31.799Z,3.70
2022-08-18T12:15:46.444Z,4.07
2022-08-18T12:16:50.926Z,4.78
2022-08-18T12:17:56.332Z,6.10
2022-08-18T12:18:59.307Z,4.00
2022-08-18T12:20:08.550Z,3.92
2022-08-18T12:21:13.907Z,4.28
2022-08-18T12:22:19.117Z,4.03
2022-08-18T12:23:21.342Z,3.97
2022-08-18T12:24:29.394Z,4.50
2022-08-18T12:25:39.027Z,4.93
2022-08-18T12:28:11.172Z,4.97
2022-08-18T12:29:14.880Z,3.90
2022-08-18T12:30:19.104Z,4.28
2022-08-18T12:31:22.329Z,3.55
2022-08-18T12:32:46.833Z,4.32
2022-08-18T12:34:00.676Z,4.07
2022-08-18T12:35:09.262Z,3.78
2022-08-18T12:36:13.648Z,3.97
2022-08-18T12:37:54.480Z,3.65
2022-08-18T12:38:44.606Z,3.45
2022-08-18T12:39:54.838Z,4.50
2022-08-18T12:40:58.897Z,3.97
2022-08-18T12:42:02.339Z,4.40
2022-08-18T12:43:05.943Z,4.82
2022-08-18T12:44:09.882Z,4.10
2022-08-18T12:45:15.684Z,3.90
2022-08-18T12:46:19.354Z,4.18
2022-08-18T12:47:25.843Z,4.10
2022-08-18T12:48:33.744Z,4.30
2022-08-18T12:49:37.545Z,4.10
2022-08-18T12:50:49.650Z,4.47
2022-08-18T12:51:55.767Z,4.60
2022-08-18T12:52:58.255Z,3.90
2022-08-18T12:54:01.485Z,4.40
2022-08-18T12:55:08.719Z,4.88
2022-08-18T12:56:30.155Z,4.53
2022-08-18T12:57:53.474Z,4.45
2022-08-18T12:58:57.239Z,4.30
2022-08-18T12:59:59.368Z,4.63
2022-08-18T13:01:03.880Z,3.92
2022-08-18T13:02:06.101Z,4.30
2022-08-18T13:03:09.754Z,4.20
2022-08-18T13:04:14.039Z,4.40
2022-08-18T13:05:19.547Z,4.80
2022-08-18T13:06:40.761Z,4.60
2022-08-18T13:07:43.359Z,4.15
2022-08-18T13:08:48.032Z,4.93
2022-08-18T13:09:54.284Z,4.05
2022-08-18T13:11:15.082Z,4.65
2022-08-18T13:12:25.532Z,4.43
2022-08-18T13:13:30.933Z,4.18
2022-08-18T13:14:33.936Z,4.50
2022-08-18T13:15:37.435Z,5.03
2022-08-18T13:16:54.009Z,4.82
2022-08-18T13:17:58.082Z,4.05
2022-08-18T13:19:00.109Z,4.45
2022-08-18T13:20:06.181Z,4.13
2022-08-18T13:21:12.545Z,3.90
2022-08-18T13:22:14.571Z,4.22
2022-08-18T13:23:21.294Z,4.38
2022-08-18T13:24:26.872Z,4.13
2022-08-18T13:25:38.311Z,4.20
2022-08-18T13:26:45.770Z,4.75
2022-08-18T13:27:52.237Z,3.95
2022-08-18T13:28:57.018Z,4.45
2022-08-18T13:30:01.318Z,4.30
2022-08-18T13:31:05.493Z,4.80
2022-08-18T13:32:18.550Z,4.57
2022-08-18T13:33:35.316Z,4.68
2022-08-18T13:34:44.334Z,4.75
2022-08-18T13:35:54.928Z,4.05
2022-08-18T13:36:57.474Z,4.72
2022-08-18T13:38:00.495Z,4.68
2022-08-18T13:39:07.355Z,4.00
2022-08-18T13:40:13.310Z,4.72
2022-08-18T13:41:16.757Z,4.13
2022-08-18T13:42:20.087Z,4.53
2022-08-18T13:43:35.933Z,4.38
2022-08-18T13:44:42.307Z,4.60
2022-08-18T13:45:56.536Z,4.55
2022-08-18T13:46:58.670Z,4.30
2022-08-18T13:48:01.683Z,4.40
2022-08-18T13:49:04.254Z,4.57
2022-08-18T13:50:11.544Z,4.70
2022-08-18T13:51:23.427Z,3.95
2022-08-18T13:52:34.870Z,4.57
2022-08-18T13:53:50.919Z,4.20
2022-08-18T13:54:59.947Z,3.92
2022-08-18T13:56:03.933Z,4.20
2022-08-18T13:57:06.585Z,4.40
2022-08-18T13:58:20.967Z,4.60
2022-08-18T13:59:27.031Z,4.50
2022-08-18T14:00:31.234Z,4.63
2022-08-18T14:01:44.155Z,4.20
2022-08-18T14:02:55.395Z,3.90
2022-08-18T14:03:58.548Z,4.22
2022-08-18T14:05:01.884Z,4.20
2022-08-18T14:06:07.578Z,4.28
2022-08-18T14:07:12.582Z,4.10
2022-08-18T14:08:20.816Z,4.13
2022-08-18T14:09:35.908Z,4.35
2022-08-18T14:10:40.427Z,4.95
2022-08-18T14:11:42.627Z,4.03
2022-08-18T14:12:57.737Z,4.25
2022-08-18T14:14:00.231Z,4.05
2022-08-18T14:15:08.258Z,4.07
2022-08-18T14:16:18.410Z,3.90
2022-08-18T14:17:23.263Z,4.13
2022-08-18T14:18:29.267Z,3.85
2022-08-18T14:19:51.270Z,4.25
2022-08-18T14:21:12.099Z,4.35
2022-08-18T14:22:33.501Z,4.05
2022-08-18T14:23:55.979Z,4.00
2022-08-18T14:25:16.919Z,4.00
2022-08-18T14:26:43.033Z,4.20
2022-08-18T14:27:56.839Z,4.15
2022-08-18T14:28:59.246Z,5.13
2022-08-18T14:30:02.546Z,4.10
2022-08-18T14:31:07.061Z,3.63
2022-08-18T14:32:11.826Z,4.13
2022-08-18T14:33:29.201Z,4.10
2022-08-18T14:34:51.131Z,3.75
2022-08-18T14:36:09.243Z,4.00
2022-08-18T14:37:12.116Z,3.90
2022-08-18T14:38:16.330Z,3.80
2022-08-18T14:39:18.286Z,4.13
2022-08-18T14:40:21.415Z,3.67
2022-08-18T14:41:25.602Z,3.83
2022-08-18T14:42:32.984Z,3.92
2022-08-18T14:43:51.691Z,4.45
2022-08-18T14:45:27.621Z,3.80
2022-08-18T14:46:35.567Z,4.30
2022-08-18T14:47:38.905Z,3.78
2022-08-18T14:48:42.509Z,4.40
2022-08-18T14:49:48.071Z,4.20
2022-08-18T14:50:54.444Z,3.75
2022-08-18T14:51:57.208Z,3.70
2022-08-18T14:53:00.170Z,4.53
2022-08-18T14:54:03.094Z,4.10
2022-08-18T14:55:06.952Z,4.00
2022-08-18T14:56:12.152Z,3.75
2022-08-18T14:57:15.298Z,3.20
2022-08-18T14:58:18.841Z,3.88
2022-08-18T14:59:25.065Z,4.20
2022-08-18T15:00:30.739Z,4.05
2022-08-18T15:01:34.708Z,3.65
2022-08-18T15:02:40.564Z,4.25
2022-08-18T15:03:44.258Z,3.70
2022-08-18T15:04:52.952Z,3.67
2022-08-18T15:05:59.571Z,4.30
2022-08-18T15:07:02.783Z,3.83
2022-08-18T15:08:05.198Z,4.53
2022-08-18T15:09:08.585Z,3.97
2022-08-18T15:10:16.091Z,4.20
2022-08-18T15:11:23.842Z,3.72
2022-08-18T15:12:27.863Z,3.88
2022-08-18T15:13:34.868Z,3.83
2022-08-18T15:14:37.850Z,4.15
2022-08-18T15:15:50.625Z,3.53
2022-08-18T15:16:56.367Z,4.47
2022-08-18T15:18:00.901Z,4.00
2022-08-18T15:19:04.080Z,3.63
2022-08-18T15:20:29.727Z,3.70
2022-08-18T15:21:50.545Z,4.05
2022-08-18T15:23:13.755Z,3.75
2022-08-18T15:24:39.649Z,4.40
2022-08-18T15:25:46.012Z,4.32
2022-08-18T15:26:51.795Z,3.70
2022-08-18T15:27:59.110Z,4.10
2022-08-18T15:29:02.265Z,4.22
2022-08-18T15:30:15.024Z,3.58
2022-08-18T15:32:46.948Z,4.43
2022-08-18T15:33:54.406Z,4.45
2022-08-18T15:35:00.854Z,4.28
2022-08-18T15:36:21.430Z,3.80
2022-08-18T15:37:34.710Z,4.13
2022-08-18T15:38:38.362Z,4.10
2022-08-18T15:39:40.433Z,4.30
2022-08-18T15:40:52.193Z,4.22
2022-08-18T15:42:00.221Z,4.15